EKVG

Vagar Airport

Vagar, Denmark
METAR EKVG 211520Z AUTO 14009KT 9999NDV -RA FEW006/// BKN021/// 07/06 Q1011 RMK BKN014/// WIND 850FT 14014G24KT
Observed Flight Rules
Apr-21 @ 15:20 UTC (18 minutes ago)
Wind Clouds Conditions
140° at 9 knots
  • Few at 600' AGL
  • Broken at 2,100' AGL
  • Light Rain
Temperatures Readings
Current 7°C / 45°F
Dewpoint 6°C / 43°F
Humidity 93%
Altimeter 29.85" Hg
Pressure 1011 hPa
Elevation 85
METAR EKVG 211520Z AUTO 14009KT 9999NDV -RA FEW006/// BKN021/// 07/06 Q1011 RMK BKN014/// WIND 850FT 14014G24KT
Observed Flight Rules
Apr-21 @ 15:20 UTC
(18 minutes ago)
Wind
140° at 9 knots
Clouds
  • Few at 600' AGL
  • Broken at 2,100' AGL
Conditions
  • Light Rain
Temperature Dewpoint
7°C / 45°F 6°C / 43°F
Humidity Altimeter Pressure
93% 29.85" Hg 1011 hPa